Time;durP1;ratioP1;P1;durP2;ratioP2;P2;SDS_P1;SDS_P2;PMS_P1;PMS_P2;Temp;Humidity;BMP_temperature;BMP_pressure;BME280_temperature;BME280_humidity;BME280_pressure;Samples;Min_cycle;Max_cycle;Signal;HPM_P1;HPM_P2
2023/12/31 00:00:15;;;;;;;9.50;3.10;;;;;;;4.69;79.87;99917.48;104428;1254;138582;-71
2023/12/31 00:03:02;;;;;;;7.00;3.00;;;;;;;4.70;80.00;99918.16;104876;1251;95924;-69
2023/12/31 00:05:29;;;;;;;5.40;2.90;;;;;;;4.72;80.17;99915.37;103887;1254;137946;-71
2023/12/31 00:07:56;;;;;;;5.80;3.20;;;;;;;4.74;80.29;99909.83;103521;1257;97861;-71
2023/12/31 00:10:23;;;;;;;7.30;3.30;;;;;;;4.76;80.37;99911.17;103561;1256;111045;-71
2023/12/31 00:12:50;;;;;;;7.60;3.50;;;;;;;4.76;80.30;99904.97;103495;1256;137228;-71
2023/12/31 00:15:17;;;;;;;5.80;3.00;;;;;;;4.75;80.37;99900.15;103621;1256;98398;-72
2023/12/31 00:17:44;;;;;;;5.60;2.70;;;;;;;4.74;80.29;99907.07;103446;1251;137938;-71
2023/12/31 00:20:12;;;;;;;5.90;2.90;;;;;;;4.71;80.39;99905.58;103506;1256;98095;-71
2023/12/31 00:22:39;;;;;;;6.20;3.00;;;;;;;4.67;80.32;99907.34;104041;1253;138198;-71
2023/12/31 00:25:07;;;;;;;8.10;2.80;;;;;;;4.67;80.62;99905.45;103461;1251;108178;-71
2023/12/31 00:27:34;;;;;;;6.00;3.20;;;;;;;4.69;80.51;99909.73;104000;1251;97795;-72
2023/12/31 00:30:01;;;;;;;7.20;3.20;;;;;;;4.68;80.45;99908.88;103438;1257;137383;-72
2023/12/31 00:32:28;;;;;;;9.00;3.80;;;;;;;4.68;80.49;99908.02;103461;1257;97782;-71
2023/12/31 00:34:55;;;;;;;8.00;3.90;;;;;;;4.67;80.78;99909.59;103342;1251;137421;-70
2023/12/31 00:37:22;;;;;;;9.80;4.10;;;;;;;4.68;80.62;99911.81;103515;1253;108184;-70
2023/12/31 00:39:50;;;;;;;7.50;4.20;;;;;;;4.64;80.62;99915.63;103495;1251;98661;-71
2023/12/31 00:42:17;;;;;;;7.80;3.90;;;;;;;4.57;80.62;99916.95;103371;1257;137604;-71
2023/12/31 00:44:44;;;;;;;10.30;4.30;;;;;;;4.50;80.56;99916.17;103489;1251;98335;-71
2023/12/31 00:47:11;;;;;;;7.30;4.20;;;;;;;4.44;80.67;99920.20;103423;1251;138323;-73
2023/12/31 00:49:38;;;;;;;8.00;4.70;;;;;;;4.40;80.62;99924.73;103471;1254;106578;-69
2023/12/31 00:52:06;;;;;;;9.50;4.90;;;;;;;4.38;81.04;99926.31;103522;1251;97800;-71
2023/12/31 00:54:34;;;;;;;9.30;5.40;;;;;;;4.37;81.15;99928.73;103485;1256;137833;-69
2023/12/31 00:57:01;;;;;;;9.50;5.40;;;;;;;4.35;81.12;99933.58;103549;1251;97807;-70
2023/12/31 00:59:28;;;;;;;8.70;6.00;;;;;;;4.35;81.59;99933.92;103417;1255;137670;-70
2023/12/31 01:01:55;;;;;;;11.20;5.90;;;;;;;4.32;81.52;99932.77;103443;1255;109509;-70
2023/12/31 01:04:22;;;;;;;10.70;6.20;;;;;;;4.31;81.76;99932.95;100507;1256;1003259;-70
2023/12/31 01:06:50;;;;;;;11.50;6.00;;;;;;;4.34;81.76;99936.02;103305;1254;138239;-70
2023/12/31 01:09:17;;;;;;;12.00;5.90;;;;;;;4.33;82.00;99936.38;103697;1256;97832;-71
2023/12/31 01:11:44;;;;;;;10.40;5.50;;;;;;;4.33;82.15;99939.46;103364;1254;138040;-71
2023/12/31 01:14:10;;;;;;;9.50;5.40;;;;;;;4.33;82.45;99941.87;103433;1256;108095;-71
2023/12/31 01:16:37;;;;;;;11.30;5.70;;;;;;;4.35;82.29;99942.19;103320;1257;138274;-71
2023/12/31 01:19:04;;;;;;;12.60;6.20;;;;;;;4.37;82.28;99947.67;103471;1257;107708;-71
2023/12/31 01:21:31;;;;;;;10.80;5.70;;;;;;;4.34;82.38;99944.95;103372;1257;97797;-71
2023/12/31 01:23:58;;;;;;;12.10;6.60;;;;;;;4.37;82.49;99948.70;103275;1251;138560;-70
2023/12/31 01:26:25;;;;;;;11.60;6.70;;;;;;;4.39;82.62;99946.78;103411;1255;107918;-72
2023/12/31 01:28:52;;;;;;;11.70;6.70;;;;;;;4.46;82.63;99951.34;103423;1256;137839;-71
2023/12/31 01:31:23;;;;;;;12.30;6.80;;;;;;;4.52;82.69;99950.77;103485;1255;107661;-72
2023/12/31 01:33:50;;;;;;;13.00;7.20;;;;;;;4.55;82.61;99952.80;103466;1253;97815;-70
2023/12/31 01:36:20;;;;;;;12.90;6.10;;;;;;;4.52;82.32;99958.35;103252;1254;138277;-70
2023/12/31 01:38:47;;;;;;;10.70;5.90;;;;;;;4.50;82.52;99958.20;103346;1257;106448;-70
2023/12/31 01:41:14;;;;;;;13.70;6.40;;;;;;;4.49;82.48;99952.52;103438;1254;138524;-71
2023/12/31 01:43:41;;;;;;;12.70;6.60;;;;;;;4.50;82.43;99953.90;103707;1256;107485;-70
2023/12/31 01:46:11;;;;;;;8.60;5.30;;;;;;;4.57;82.60;99954.31;103509;1257;97781;-70
2023/12/31 01:48:38;;;;;;;9.30;5.80;;;;;;;4.64;82.65;99953.36;103765;1256;137840;-71
2023/12/31 01:51:06;;;;;;;9.90;5.90;;;;;;;4.71;82.37;99957.24;103489;1256;107009;-71
2023/12/31 01:53:34;;;;;;;12.40;6.30;;;;;;;4.69;82.24;99962.09;103777;1254;137683;-71
2023/12/31 01:56:01;;;;;;;14.10;6.40;;;;;;;4.67;81.80;99964.00;103262;1257;107645;-70
2023/12/31 01:58:28;;;;;;;14.20;6.90;;;;;;;4.62;81.98;99966.30;103357;1257;97681;-72
2023/12/31 02:00:56;;;;;;;11.30;5.80;;;;;;;4.57;82.11;99961.54;104845;1253;112816;-71
2023/12/31 02:03:26;;;;;;;10.30;5.70;;;;;;;4.55;81.98;99964.49;103672;1254;107584;-71
2023/12/31 02:05:53;;;;;;;10.20;5.30;;;;;;;4.56;82.13;99963.45;103357;1254;138366;-71
2023/12/31 02:08:20;;;;;;;11.40;5.50;;;;;;;4.59;82.15;99962.55;103637;1256;107081;-70
2023/12/31 02:10:47;;;;;;;9.70;5.10;;;;;;;4.61;82.21;99958.90;103296;1256;138932;-72
2023/12/31 02:13:14;;;;;;;10.40;5.70;;;;;;;4.64;82.15;99957.48;103305;1257;110788;-71
2023/12/31 02:15:41;;;;;;;9.70;6.10;;;;;;;4.68;82.09;99957.61;103499;1254;107470;-70
2023/12/31 02:18:09;;;;;;;12.70;6.00;;;;;;;4.69;81.99;99959.33;103287;1257;138696;-71
2023/12/31 02:20:36;;;;;;;13.10;6.70;;;;;;;4.67;81.73;99959.52;103414;1257;107480;-72
2023/12/31 02:23:03;;;;;;;11.20;6.00;;;;;;;4.60;81.64;99957.18;103293;1254;137895;-72
2023/12/31 02:25:34;;;;;;;9.40;5.80;;;;;;;4.50;81.69;99958.19;102632;1257;1002926;-70
2023/12/31 02:28:01;;;;;;;10.90;5.50;;;;;;;4.44;81.69;99960.82;103409;1252;108299;-71
2023/12/31 02:30:29;;;;;;;9.30;5.50;;;;;;;4.38;81.83;99958.32;103376;1254;138360;-71
2023/12/31 02:32:56;;;;;;;9.00;5.20;;;;;;;4.38;82.13;99960.56;103402;1254;108367;-71
2023/12/31 02:35:22;;;;;;;10.30;5.80;;;;;;;4.43;82.36;99962.05;103371;1254;137864;-70
2023/12/31 02:37:49;;;;;;;10.80;5.70;;;;;;;4.49;82.35;99963.36;103489;1256;111839;-71
2023/12/31 02:40:16;;;;;;;12.10;5.90;;;;;;;4.52;82.19;99963.00;103434;1257;107671;-71
2023/12/31 02:42:43;;;;;;;11.60;6.10;;;;;;;4.53;82.41;99959.86;103404;1257;136613;-70
2023/12/31 02:45:11;;;;;;;10.20;6.50;;;;;;;4.54;82.27;99960.20;103427;1257;107492;-71
2023/12/31 02:47:38;;;;;;;11.90;6.70;;;;;;;4.51;82.20;99963.69;103764;1251;137499;-71
2023/12/31 02:50:08;;;;;;;11.50;6.40;;;;;;;4.43;82.04;99963.94;103446;1251;110887;-71
2023/12/31 02:52:35;;;;;;;11.10;5.80;;;;;;;4.37;82.29;99967.82;103395;1255;138989;-70
2023/12/31 02:55:02;;;;;;;11.90;5.70;;;;;;;4.33;82.37;99965.44;103483;1254;97805;-71
2023/12/31 02:57:29;;;;;;;11.20;5.60;;;;;;;4.26;82.35;99963.10;103421;1257;107385;-70
2023/12/31 02:59:56;;;;;;;9.20;5.90;;;;;;;4.28;82.81;99971.69;103281;1253;137991;-71
2023/12/31 03:02:23;;;;;;;10.90;6.20;;;;;;;4.24;82.46;99976.55;103575;1248;112073;-71
2023/12/31 03:04:50;;;;;;;9.00;5.80;;;;;;;4.25;82.75;99980.48;103069;1259;138036;-72
2023/12/31 03:07:17;;;;;;;9.40;6.10;;;;;;;4.23;82.57;99983.09;103153;1260;97715;-71
2023/12/31 03:09:44;;;;;;;14.00;7.60;;;;;;;4.20;82.69;99983.14;103138;1257;107624;-71
2023/12/31 03:12:11;;;;;;;10.30;6.60;;;;;;;4.18;82.80;99985.05;102967;1255;138296;-72
2023/12/31 03:14:38;;;;;;;14.00;7.20;;;;;;;4.16;82.96;99987.83;102509;1255;1003026;-72
2023/12/31 03:17:05;;;;;;;12.20;6.20;;;;;;;4.11;82.96;99993.02;103101;1256;138607;-71
2023/12/31 03:19:36;;;;;;;14.60;6.40;;;;;;;4.10;83.19;99998.70;103144;1259;98296;-72
2023/12/31 03:22:04;;;;;;;12.40;6.10;;;;;;;4.11;83.50;99999.55;104432;1256;106782;-73
2023/12/31 03:24:30;;;;;;;13.90;6.70;;;;;;;4.13;83.44;99999.91;104466;1259;138841;-72
2023/12/31 03:26:57;;;;;;;10.20;6.40;;;;;;;4.19;84.19;100000.69;104608;1259;111232;-72
2023/12/31 03:29:24;;;;;;;13.40;7.00;;;;;;;4.29;84.27;100007.98;103571;1259;138129;-72
2023/12/31 03:31:51;;;;;;;10.80;7.20;;;;;;;4.36;84.18;100010.85;103201;1263;97799;-72
2023/12/31 03:34:18;;;;;;;11.20;7.20;;;;;;;4.43;84.04;100008.36;103148;1257;107140;-71
2023/12/31 03:36:46;;;;;;;13.90;8.00;;;;;;;4.46;83.93;100005.39;103130;1259;137753;-71
2023/12/31 03:39:14;;;;;;;13.90;7.60;;;;;;;4.46;83.99;100005.05;103260;1259;110796;-71
2023/12/31 03:41:41;;;;;;;14.30;6.80;;;;;;;4.43;83.77;100003.36;103120;1259;138346;-71
2023/12/31 03:44:08;;;;;;;12.60;6.80;;;;;;;4.40;83.53;100007.71;103205;1258;97847;-72
2023/12/31 03:46:36;;;;;;;13.20;7.30;;;;;;;4.36;83.69;100010.17;103141;1260;140114;-70
2023/12/31 03:49:03;;;;;;;11.40;7.00;;;;;;;4.38;83.89;100008.77;103228;1257;97916;-71
2023/12/31 03:51:30;;;;;;;15.10;7.90;;;;;;;4.40;83.99;100009.94;103248;1255;111463;-71
2023/12/31 03:53:57;;;;;;;16.60;8.50;;;;;;;4.45;83.97;100007.98;103102;1259;140607;-71
2023/12/31 03:56:24;;;;;;;16.40;8.30;;;;;;;4.46;84.11;100008.48;103245;1260;98330;-71
2023/12/31 03:58:53;;;;;;;16.50;8.80;;;;;;;4.45;83.74;100000.23;103089;1258;137708;-73
2023/12/31 04:01:20;;;;;;;14.80;8.20;;;;;;;4.41;84.01;100002.18;103235;1257;97917;-71
2023/12/31 04:03:47;;;;;;;15.40;8.50;;;;;;;4.38;84.11;100002.22;103154;1260;111853;-71
2023/12/31 04:06:13;;;;;;;16.80;8.10;;;;;;;4.36;84.03;100009.48;103040;1260;138330;-70
2023/12/31 04:08:40;;;;;;;15.90;7.60;;;;;;;4.38;84.36;100012.55;103123;1254;97699;-71
2023/12/31 04:11:07;;;;;;;13.80;8.00;;;;;;;4.43;84.41;100013.35;102953;1257;139101;-71
2023/12/31 04:13:34;;;;;;;15.80;8.20;;;;;;;4.47;84.40;100013.30;103147;1255;97811;-71
2023/12/31 04:16:01;;;;;;;14.90;9.20;;;;;;;4.49;84.20;100016.23;103199;1259;111818;-70
2023/12/31 04:18:28;;;;;;;16.50;8.70;;;;;;;4.51;84.22;100017.73;103038;1257;137851;-72
2023/12/31 04:20:55;;;;;;;15.60;9.30;;;;;;;4.56;84.39;100013.03;103218;1257;97754;-72
2023/12/31 04:23:22;;;;;;;18.20;10.10;;;;;;;4.58;84.25;100014.39;102974;1257;138097;-72
2023/12/31 04:25:49;;;;;;;14.40;8.80;;;;;;;4.58;84.32;100014.21;103158;1255;97690;-72
2023/12/31 04:28:16;;;;;;;15.80;8.90;;;;;;;4.54;84.08;100013.41;103065;1255;111792;-72
2023/12/31 04:30:43;;;;;;;15.10;8.50;;;;;;;4.53;84.15;100009.64;103125;1254;138435;-72
2023/12/31 04:33:11;;;;;;;14.90;8.10;;;;;;;4.51;84.21;100004.84;104015;1254;97800;-72
2023/12/31 04:35:40;;;;;;;18.60;8.80;;;;;;;4.55;84.39;100009.95;103773;1254;138160;-73
2023/12/31 04:38:16;;;;;;;15.50;9.10;;;;;;;4.66;84.54;100011.36;103247;1260;98258;-71
2023/12/31 04:40:43;;;;;;;15.50;9.40;;;;;;;4.70;84.33;100008.91;103199;1260;138065;-71
2023/12/31 04:43:10;;;;;;;16.00;9.30;;;;;;;4.72;84.50;100009.23;103556;1257;107193;-72
2023/12/31 04:45:37;;;;;;;17.80;9.70;;;;;;;4.71;83.94;100014.42;103323;1255;98177;-71
2023/12/31 04:48:05;;;;;;;16.00;8.80;;;;;;;4.65;83.84;100016.36;103120;1257;137492;-70
2023/12/31 04:50:32;;;;;;;17.40;9.10;;;;;;;4.61;84.04;100012.45;104565;1257;96124;-72
2023/12/31 04:52:59;;;;;;;15.30;8.30;;;;;;;4.64;84.25;100020.85;104488;1254;138983;-72
2023/12/31 04:55:26;;;;;;;14.00;7.70;;;;;;;4.65;84.26;100020.15;104529;1254;107262;-72
2023/12/31 04:57:53;;;;;;;13.30;8.10;;;;;;;4.69;84.12;100012.71;103459;1260;97925;-72
2023/12/31 05:00:21;;;;;;;19.30;9.30;;;;;;;4.68;83.85;100010.33;103054;1259;137763;-72
2023/12/31 05:02:47;;;;;;;17.30;8.60;;;;;;;4.71;84.02;100001.84;103236;1260;97684;-71
2023/12/31 05:05:14;;;;;;;20.10;9.20;;;;;;;4.70;83.81;99997.55;103144;1258;138225;-71
2023/12/31 05:07:41;;;;;;;19.10;9.80;;;;;;;4.64;83.46;99995.70;103237;1254;108257;-71
2023/12/31 05:10:09;;;;;;;19.00;9.30;;;;;;;4.51;83.37;100000.35;103222;1258;98593;-71
2023/12/31 05:12:36;;;;;;;13.40;8.00;;;;;;;4.42;83.13;100002.69;103134;1254;138233;-73
2023/12/31 05:15:03;;;;;;;19.10;8.60;;;;;;;4.37;83.45;100003.27;102446;1254;1003054;-71
2023/12/31 05:17:30;;;;;;;14.90;8.30;;;;;;;4.34;83.62;100004.68;103544;1254;138768;-72
2023/12/31 05:19:56;;;;;;;17.00;8.60;;;;;;;4.36;83.78;100002.08;103253;1254;107385;-71
2023/12/31 05:22:23;;;;;;;14.90;8.60;;;;;;;4.38;83.93;100000.33;103291;1253;97697;-71
2023/12/31 05:24:50;;;;;;;16.40;9.30;;;;;;;4.39;83.86;100004.45;103200;1254;137664;-72
2023/12/31 05:27:19;;;;;;;18.90;9.70;;;;;;;4.39;84.01;100002.55;103337;1257;98265;-70
2023/12/31 05:29:46;;;;;;;17.20;10.40;;;;;;;4.33;83.33;100000.55;103209;1257;138454;-71
2023/12/31 05:32:13;;;;;;;16.20;9.40;;;;;;;4.18;83.31;99998.13;103274;1255;108192;-71
2023/12/31 05:34:41;;;;;;;17.00;10.20;;;;;;;4.02;83.45;99997.77;103201;1254;138317;-70
2023/12/31 05:37:08;;;;;;;20.20;10.40;;;;;;;3.88;83.32;100001.66;103215;1254;108258;-71
2023/12/31 05:39:35;;;;;;;18.20;10.40;;;;;;;3.78;83.64;100007.61;103236;1254;97909;-71
2023/12/31 05:42:02;;;;;;;16.50;9.60;;;;;;;3.69;84.23;100004.25;103183;1257;138734;-71
2023/12/31 05:44:30;;;;;;;16.80;9.70;;;;;;;3.66;84.29;100009.09;103234;1254;108345;-71
2023/12/31 05:46:56;;;;;;;17.60;10.20;;;;;;;3.62;84.36;100010.34;103117;1254;138390;-71
2023/12/31 05:49:24;;;;;;;20.10;10.30;;;;;;;3.57;84.48;100011.23;103262;1256;109710;-70
2023/12/31 05:51:51;;;;;;;20.70;11.30;;;;;;;3.56;84.79;100011.05;103247;1254;97786;-70
2023/12/31 05:54:18;;;;;;;22.40;11.90;;;;;;;3.56;84.86;100013.11;103330;1258;137717;-70
2023/12/31 05:56:45;;;;;;;19.50;11.50;;;;;;;3.51;84.83;100013.66;103230;1258;108280;-71
2023/12/31 05:59:12;;;;;;;19.10;11.90;;;;;;;3.45;84.81;100011.31;103158;1254;140087;-71
2023/12/31 06:01:39;;;;;;;21.90;11.90;;;;;;;3.38;84.71;100011.35;103222;1254;108390;-71
2023/12/31 06:04:06;;;;;;;20.90;11.20;;;;;;;3.33;85.07;100011.21;103248;1257;97836;-71
2023/12/31 06:06:36;;;;;;;22.10;12.00;;;;;;;3.30;85.13;100013.65;103122;1259;138941;-71
2023/12/31 06:09:04;;;;;;;23.60;12.90;;;;;;;3.32;85.12;100011.58;103263;1254;107154;-73
2023/12/31 06:11:31;;;;;;;24.40;13.10;;;;;;;3.33;85.26;100014.82;103176;1254;138021;-70
2023/12/31 06:13:58;;;;;;;24.50;13.50;;;;;;;3.37;85.56;100015.99;103251;1254;107892;-71
2023/12/31 06:16:24;;;;;;;25.90;14.00;;;;;;;3.39;85.39;100008.59;103259;1257;97919;-71
2023/12/31 06:18:51;;;;;;;24.60;14.20;;;;;;;3.36;85.14;100008.78;103247;1254;138015;-71
2023/12/31 06:21:18;;;;;;;20.90;13.30;;;;;;;3.30;85.17;100014.67;103312;1254;108183;-72
2023/12/31 06:23:45;;;;;;;18.80;11.40;;;;;;;3.26;85.32;100014.54;103193;1254;139030;-70
2023/12/31 06:26:12;;;;;;;18.90;11.70;;;;;;;3.22;85.18;100014.36;103291;1257;108383;-71
2023/12/31 06:28:39;;;;;;;23.40;11.90;;;;;;;3.20;85.51;100010.10;103139;1254;138815;-71
2023/12/31 06:31:06;;;;;;;21.80;12.10;;;;;;;3.22;85.50;100012.31;103264;1254;112140;-71
2023/12/31 06:33:33;;;;;;;20.80;11.80;;;;;;;3.24;85.58;100007.33;103185;1254;107820;-71
2023/12/31 06:36:00;;;;;;;19.50;12.00;;;;;;;3.30;85.74;100002.30;103148;1254;138810;-71
2023/12/31 06:38:27;;;;;;;29.60;13.10;;;;;;;3.38;85.82;100001.89;103236;1254;107800;-71
2023/12/31 06:40:53;;;;;;;22.30;13.10;;;;;;;3.38;85.53;100005.67;103163;1259;138846;-71
2023/12/31 06:43:21;;;;;;;19.70;12.70;;;;;;;3.36;85.43;99999.86;103259;1254;111994;-72
2023/12/31 06:45:47;;;;;;;21.90;11.70;;;;;;;3.35;85.30;99999.86;103307;1253;107798;-72
2023/12/31 06:48:15;;;;;;;22.60;12.00;;;;;;;3.32;85.07;100002.81;103112;1257;138541;-71
2023/12/31 06:50:43;;;;;;;26.30;12.60;;;;;;;3.24;84.94;100002.00;103257;1254;107722;-72
2023/12/31 06:53:10;;;;;;;23.80;12.40;;;;;;;3.18;84.95;100010.45;103070;1261;138764;-72
2023/12/31 06:55:37;;;;;;;25.10;13.00;;;;;;;3.13;84.79;100008.42;103244;1254;110889;-71
2023/12/31 06:58:04;;;;;;;18.90;12.20;;;;;;;3.11;85.26;100009.98;103123;1260;109718;-70
2023/12/31 07:00:31;;;;;;;25.40;12.90;;;;;;;3.14;85.27;100009.10;103568;1254;138891;-72
2023/12/31 07:02:57;;;;;;;23.10;13.30;;;;;;;3.16;85.30;100007.89;103209;1257;107736;-71
2023/12/31 07:05:24;;;;;;;22.80;13.60;;;;;;;3.19;85.21;100004.94;103316;1253;138093;-72
2023/12/31 07:07:51;;;;;;;27.40;13.90;;;;;;;3.20;85.03;100004.24;103300;1253;111440;-71
2023/12/31 07:10:18;;;;;;;24.90;15.00;;;;;;;3.24;85.17;99999.43;103310;1254;108886;-72
2023/12/31 07:12:45;;;;;;;22.80;13.40;;;;;;;3.25;85.15;100002.17;103222;1254;137890;-71
2023/12/31 07:15:13;;;;;;;21.50;12.70;;;;;;;3.27;85.19;100004.56;103302;1254;108138;-70
2023/12/31 07:17:39;;;;;;;24.20;13.50;;;;;;;3.31;85.05;100002.64;103157;1256;139060;-71
2023/12/31 07:20:09;;;;;;;22.90;13.10;;;;;;;3.37;85.09;100003.27;103279;1255;111917;-72
2023/12/31 07:22:37;;;;;;;22.10;12.70;;;;;;;3.43;84.88;100001.18;104483;1254;138807;-71
2023/12/31 07:25:07;;;;;;;24.00;13.60;;;;;;;3.51;84.60;99998.38;103895;1254;97883;-72
2023/12/31 07:27:34;;;;;;;22.10;14.10;;;;;;;3.63;84.98;99999.66;103363;1257;108144;-71
2023/12/31 07:30:01;;;;;;;24.40;13.80;;;;;;;3.75;84.48;100001.80;103236;1257;137799;-71
2023/12/31 07:32:28;;;;;;;23.90;13.60;;;;;;;3.83;84.15;100007.41;103312;1258;112090;-72
2023/12/31 07:34:54;;;;;;;22.20;13.40;;;;;;;3.85;83.45;100009.27;103146;1253;138970;-71
2023/12/31 07:37:21;;;;;;;22.10;12.80;;;;;;;3.87;83.43;100015.45;103375;1253;97787;-71
2023/12/31 07:39:48;;;;;;;21.00;12.40;;;;;;;3.84;83.07;100019.61;103315;1254;108336;-71
2023/12/31 07:42:15;;;;;;;18.90;13.10;;;;;;;3.79;82.68;100021.04;103247;1254;139457;-72
2023/12/31 07:44:42;;;;;;;20.90;12.30;;;;;;;3.80;83.11;100022.05;103372;1253;112041;-71
2023/12/31 07:47:09;;;;;;;23.40;12.10;;;;;;;3.82;83.08;100016.70;103172;1257;139528;-70
2023/12/31 07:49:36;;;;;;;19.00;11.90;;;;;;;3.87;82.94;100016.48;103336;1254;97794;-72
2023/12/31 07:52:03;;;;;;;22.50;12.10;;;;;;;3.95;82.79;100019.17;103270;1254;107843;-71
2023/12/31 07:54:30;;;;;;;19.70;12.20;;;;;;;4.02;82.62;100020.14;103290;1258;139237;-71
2023/12/31 07:56:58;;;;;;;21.10;11.90;;;;;;;4.06;82.37;100019.05;103330;1254;111438;-71
2023/12/31 07:59:27;;;;;;;23.10;13.00;;;;;;;4.10;82.07;100019.36;103178;1254;138011;-71
2023/12/31 08:01:53;;;;;;;24.80;12.90;;;;;;;4.13;82.06;100020.20;103340;1254;98396;-71
2023/12/31 08:04:20;;;;;;;24.10;13.80;;;;;;;4.18;82.16;100021.20;103328;1253;107291;-72
2023/12/31 08:06:47;;;;;;;17.80;12.20;;;;;;;4.21;81.89;100021.85;103217;1253;137696;-73
2023/12/31 08:09:15;;;;;;;21.40;11.50;;;;;;;4.27;81.82;100026.94;103335;1253;111534;-71
2023/12/31 08:11:42;;;;;;;21.80;12.00;;;;;;;4.34;81.70;100028.79;103106;1257;139334;-72
2023/12/31 08:14:09;;;;;;;18.70;11.60;;;;;;;4.41;81.42;100027.49;103263;1256;97759;-71
2023/12/31 08:16:36;;;;;;;18.50;11.30;;;;;;;4.46;81.29;100027.95;103196;1259;139552;-71
2023/12/31 08:19:04;;;;;;;22.80;12.10;;;;;;;4.50;80.92;100029.13;104023;1255;97902;-72
2023/12/31 08:21:31;;;;;;;19.50;11.90;;;;;;;4.51;80.67;100033.77;103254;1258;110739;-71
2023/12/31 08:23:58;;;;;;;23.40;13.90;;;;;;;4.48;80.59;100034.13;103175;1254;138075;-70
2023/12/31 08:26:26;;;;;;;22.20;14.00;;;;;;;4.49;80.27;100037.05;103265;1255;97829;-72
2023/12/31 08:28:52;;;;;;;24.50;14.30;;;;;;;4.52;80.54;100034.79;103193;1256;138234;-70
2023/12/31 08:31:20;;;;;;;24.00;12.60;;;;;;;4.56;80.63;100035.08;103209;1256;98516;-71
2023/12/31 08:33:46;;;;;;;19.60;12.00;;;;;;;4.62;80.56;100035.52;103298;1254;111443;-71
2023/12/31 08:36:14;;;;;;;22.10;12.70;;;;;;;4.70;80.63;100031.81;103125;1258;139322;-70
2023/12/31 08:38:40;;;;;;;21.10;12.80;;;;;;;4.79;80.45;100028.08;103318;1254;98345;-70
2023/12/31 08:41:08;;;;;;;22.30;12.80;;;;;;;4.92;80.48;100026.89;103229;1258;138630;-71
2023/12/31 08:43:35;;;;;;;23.10;13.20;;;;;;;5.08;80.28;100029.80;103281;1259;98214;-71
2023/12/31 08:46:04;;;;;;;25.10;13.50;;;;;;;5.25;80.31;100026.97;103299;1256;111863;-72
2023/12/31 08:48:31;;;;;;;22.30;13.50;;;;;;;5.46;80.01;100022.52;103139;1259;138042;-72
2023/12/31 08:50:58;;;;;;;22.30;13.10;;;;;;;5.61;79.33;100023.67;103263;1254;97913;-70
2023/12/31 08:53:25;;;;;;;24.80;12.30;;;;;;;5.75;79.01;100027.61;103148;1254;137664;-70
2023/12/31 08:55:52;;;;;;;26.90;13.30;;;;;;;5.85;78.61;100023.29;103363;1253;97716;-72
2023/12/31 08:58:19;;;;;;;20.80;12.40;;;;;;;5.93;78.03;100030.09;103325;1253;110912;-71
2023/12/31 09:00:46;;;;;;;23.30;14.00;;;;;;;6.03;78.22;100030.95;103233;1253;138121;-72
2023/12/31 09:03:12;;;;;;;20.70;13.70;;;;;;;6.16;77.95;100030.92;103350;1253;97685;-71
2023/12/31 09:05:40;;;;;;;22.50;12.80;;;;;;;6.27;77.78;100030.03;103520;1253;138315;-72
2023/12/31 09:08:08;;;;;;;20.90;12.30;;;;;;;6.41;77.54;100030.98;101052;1253;1004981;-72
2023/12/31 09:10:35;;;;;;;20.40;11.30;;;;;;;6.45;76.80;100032.95;103305;1254;111236;-71
2023/12/31 09:13:03;;;;;;;18.70;11.20;;;;;;;6.47;76.61;100030.70;103310;1253;108068;-71
2023/12/31 09:15:30;;;;;;;16.60;11.00;;;;;;;6.52;76.55;100030.09;103352;1253;97919;-72
2023/12/31 09:17:57;;;;;;;19.40;10.70;;;;;;;6.56;76.36;100028.10;103098;1257;139053;-71
2023/12/31 09:20:24;;;;;;;20.00;11.30;;;;;;;6.63;75.88;100023.11;103251;1254;97795;-72
2023/12/31 09:22:53;;;;;;;18.90;11.20;;;;;;;6.70;76.14;100018.66;103160;1259;138636;-71
2023/12/31 09:25:20;;;;;;;20.60;12.10;;;;;;;6.82;75.95;100017.03;103256;1253;107685;-72
2023/12/31 09:27:48;;;;;;;21.80;12.00;;;;;;;6.90;75.46;100014.80;103661;1253;97831;-71
2023/12/31 09:30:16;;;;;;;21.10;12.30;;;;;;;6.92;75.25;100008.54;103348;1258;138196;-72
2023/12/31 09:32:43;;;;;;;20.50;12.00;;;;;;;6.98;74.91;100009.09;103274;1254;97811;-70
2023/12/31 09:35:10;;;;;;;25.00;12.90;;;;;;;7.05;74.60;100010.35;103488;1257;138260;-72
2023/12/31 09:37:37;;;;;;;19.70;11.40;;;;;;;7.05;74.10;100007.05;103276;1257;108549;-71
2023/12/31 09:40:06;;;;;;;20.80;12.00;;;;;;;7.05;74.16;100005.85;103364;1253;97817;-70
2023/12/31 09:42:43;;;;;;;20.20;11.80;;;;;;;7.04;73.80;100007.77;103240;1254;137723;-71
2023/12/31 09:45:13;;;;;;;23.00;12.70;;;;;;;7.01;73.76;100005.08;103991;1253;97798;-72
2023/12/31 09:47:42;;;;;;;20.70;12.40;;;;;;;7.03;74.17;99998.81;104387;1254;138210;-70
2023/12/31 09:50:10;;;;;;;21.40;13.40;;;;;;;7.13;74.39;99990.95;103565;1257;107032;-70
2023/12/31 09:52:38;;;;;;;20.40;11.30;;;;;;;7.25;74.21;99985.86;103400;1257;97801;-71
2023/12/31 09:55:07;;;;;;;23.00;11.90;;;;;;;7.28;73.59;99981.46;104135;1254;107086;-71
2023/12/31 09:57:35;;;;;;;19.40;11.00;;;;;;;7.31;73.22;99982.95;103369;1254;97811;-71
2023/12/31 10:00:05;;;;;;;20.00;11.00;;;;;;;7.34;72.77;99981.84;103606;1254;138417;-70
2023/12/31 10:02:36;;;;;;;20.20;11.30;;;;;;;7.38;73.09;99978.30;103699;1254;107658;-71
2023/12/31 10:05:04;;;;;;;19.70;11.80;;;;;;;7.51;73.36;99974.18;103195;1254;139458;-71
2023/12/31 10:07:31;;;;;;;25.00;12.20;;;;;;;7.68;73.34;99972.55;103600;1258;107421;-70
2023/12/31 10:10:00;;;;;;;20.30;12.20;;;;;;;7.84;73.14;99970.75;103288;1256;98727;-71
2023/12/31 10:12:27;;;;;;;19.10;11.90;;;;;;;7.94;72.51;99972.60;103270;1253;141810;-70
2023/12/31 10:14:54;;;;;;;20.90;11.60;;;;;;;7.97;72.27;99972.52;104077;1254;107986;-70
2023/12/31 10:17:22;;;;;;;17.40;11.60;;;;;;;7.97;71.85;99965.59;104013;1256;138850;-71
2023/12/31 10:19:49;;;;;;;20.80;12.60;;;;;;;7.95;71.66;99966.16;103232;1254;107649;-71
2023/12/31 10:22:16;;;;;;;19.40;12.10;;;;;;;7.96;71.54;99963.02;103299;1257;97766;-71
2023/12/31 10:24:43;;;;;;;17.40;11.00;;;;;;;7.96;71.54;99960.27;103302;1253;137530;-70
2023/12/31 10:27:12;;;;;;;20.50;11.20;;;;;;;7.94;71.22;99964.11;103268;1254;107241;-70
2023/12/31 10:29:39;;;;;;;18.30;12.00;;;;;;;7.87;71.13;99963.74;103144;1254;137865;-71
2023/12/31 10:32:07;;;;;;;24.80;12.30;;;;;;;7.82;70.93;99964.39;103231;1258;107924;-72
2023/12/31 10:34:35;;;;;;;22.80;12.00;;;;;;;7.81;70.98;99957.84;103347;1256;97785;-71
2023/12/31 10:37:05;;;;;;;18.80;11.20;;;;;;;7.80;70.97;99956.48;103670;1254;110280;-71
2023/12/31 10:39:34;;;;;;;16.70;11.30;;;;;;;7.79;70.79;99952.89;103213;1256;107857;-72
2023/12/31 10:42:04;;;;;;;20.10;11.20;;;;;;;7.74;71.00;99944.36;103142;1255;138761;-72
2023/12/31 10:44:34;;;;;;;20.50;11.00;;;;;;;7.87;71.64;99940.05;103299;1254;106782;-70
2023/12/31 10:47:05;;;;;;;18.20;9.90;;;;;;;7.98;71.02;99938.02;103203;1258;138687;-71
2023/12/31 10:49:33;;;;;;;21.60;10.50;;;;;;;7.97;70.31;99940.33;103400;1256;111042;-70
2023/12/31 10:52:03;;;;;;;18.30;10.60;;;;;;;7.87;70.00;99940.73;103284;1253;108021;-70
2023/12/31 10:54:37;;;;;;;17.70;10.80;;;;;;;7.77;69.83;99935.47;103179;1253;1003578;-71
2023/12/31 10:57:06;;;;;;;20.30;11.90;;;;;;;7.64;69.95;99933.73;103370;1254;107494;-72
2023/12/31 10:59:35;;;;;;;20.90;12.20;;;;;;;7.56;70.56;99924.06;103271;1257;138301;-70
2023/12/31 11:02:02;;;;;;;20.70;11.40;;;;;;;7.50;70.37;99923.67;103244;1256;111419;-72
2023/12/31 11:04:31;;;;;;;21.90;12.20;;;;;;;7.42;70.50;99915.92;103148;1256;107977;-71
2023/12/31 11:07:00;;;;;;;21.40;11.90;;;;;;;7.37;70.86;99910.70;103143;1256;137679;-70
2023/12/31 11:09:28;;;;;;;20.10;11.60;;;;;;;7.35;70.86;99909.52;103775;1254;107501;-71
2023/12/31 11:11:55;;;;;;;18.80;12.10;;;;;;;7.25;70.81;99905.11;103398;1256;138297;-71